createdAt,value
2017-05-08T16:59:23.615Z,856
2017-05-08T17:00:23.626Z,724
2017-05-08T17:01:23.656Z,648
2017-05-08T17:02:23.659Z,628
2017-05-08T17:03:23.706Z,660
2017-05-08T17:04:23.763Z,732
2017-05-08T17:05:23.751Z,808
2017-05-08T17:06:23.772Z,1012
2017-05-08T17:07:23.764Z,1336
2017-05-08T17:08:23.794Z,1532
2017-05-08T17:09:23.850Z,1660
2017-05-08T17:10:23.857Z,1812
2017-05-08T17:11:23.891Z,1840
2017-05-08T17:12:23.907Z,1872
2017-05-08T17:13:23.955Z,1876
2017-05-08T17:14:23.972Z,1876
2017-05-08T17:15:24.016Z,1864
2017-05-08T17:16:24.044Z,1820
2017-05-08T17:17:24.034Z,1752
2017-05-08T17:18:24.059Z,1684
2017-05-08T17:19:24.078Z,1572
2017-05-08T17:20:24.149Z,1580
2017-05-08T17:21:24.141Z,1516
2017-05-08T17:22:24.164Z,1416
2017-05-08T17:23:24.250Z,1332
2017-05-08T17:24:24.271Z,1220
2017-05-08T17:25:24.260Z,1092
2017-05-08T17:26:24.291Z,1056
2017-05-08T17:27:24.321Z,1076
2017-05-08T17:28:24.362Z,1076
2017-05-08T17:29:24.416Z,1120
2017-05-08T17:30:24.407Z,1200
2017-05-08T17:31:24.456Z,1196
2017-05-08T17:32:24.455Z,1248
2017-05-08T17:33:24.513Z,1236
2017-05-08T17:34:24.653Z,1300
2017-05-08T17:35:24.604Z,1328
2017-05-08T17:36:24.584Z,1308
2017-05-08T17:37:24.645Z,1196
2017-05-08T17:38:24.663Z,1176
2017-05-08T17:39:24.821Z,1112
2017-05-08T17:40:24.722Z,1036
2017-05-08T17:41:24.757Z,988
2017-05-08T17:42:24.766Z,940
2017-05-08T17:43:24.861Z,868
2017-05-08T17:44:25.163Z,808
2017-05-08T17:45:24.889Z,756
2017-05-08T17:46:24.889Z,740
2017-05-08T17:47:24.927Z,716
2017-05-08T17:48:24.971Z,696
2017-05-08T17:49:24.968Z,696
2017-05-08T17:50:24.998Z,692
2017-05-08T17:51:25.047Z,684
2017-05-08T17:52:25.047Z,688
2017-05-08T17:53:25.073Z,708
2017-05-08T17:54:25.182Z,740
2017-05-08T17:55:25.145Z,748
2017-05-08T17:56:25.167Z,756
2017-05-08T17:57:25.193Z,744
2017-05-08T17:58:25.238Z,736
2017-05-08T17:59:25.263Z,736
2017-05-08T18:00:25.329Z,716
2017-05-08T18:01:25.534Z,700
2017-05-08T18:02:25.344Z,672
2017-05-08T18:03:25.387Z,652
2017-05-08T18:04:25.450Z,640
2017-05-08T18:05:25.445Z,636
2017-05-08T18:06:25.472Z,608
2017-05-08T18:07:25.515Z,588
2017-05-08T18:08:25.575Z,588
2017-05-08T18:09:25.562Z,572
2017-05-08T18:10:25.582Z,548
2017-05-08T18:11:25.653Z,528
2017-05-08T18:12:25.663Z,512
2017-05-08T18:13:25.938Z,468
2017-05-08T18:14:25.748Z,440
2017-05-08T18:15:25.752Z,408
2017-05-08T18:16:25.771Z,384
2017-05-08T18:17:25.822Z,364
2017-05-08T18:18:25.851Z,344
2017-05-08T18:19:25.872Z,328
2017-05-08T18:20:25.890Z,312
2017-05-08T18:21:25.988Z,308
2017-05-08T18:22:25.963Z,288
2017-05-08T18:23:25.988Z,272
2017-05-08T18:24:26.007Z,268
2017-05-08T18:25:26.053Z,260
2017-05-08T18:26:26.066Z,256
2017-05-08T18:27:26.139Z,248
2017-05-08T18:28:26.147Z,236
2017-05-08T18:29:26.154Z,232
2017-05-08T18:30:26.239Z,224
2017-05-08T18:31:26.210Z,212
2017-05-08T18:32:26.261Z,200
2017-05-08T18:33:26.296Z,188
2017-05-08T18:34:26.313Z,184
2017-05-08T18:35:26.385Z,180
2017-05-08T18:36:26.383Z,172
2017-05-08T18:37:26.388Z,156
2017-05-08T18:38:26.685Z,148
2017-05-08T18:39:26.457Z,140
2017-05-08T18:40:26.485Z,128
2017-05-08T18:41:26.521Z,124
2017-05-08T18:42:26.569Z,112
2017-05-08T18:43:26.793Z,108
2017-05-08T18:44:26.618Z,96
2017-05-08T18:45:26.778Z,88
2017-05-08T18:46:26.666Z,80
2017-05-08T18:47:26.692Z,72
2017-05-08T18:48:26.754Z,68
2017-05-08T18:49:26.767Z,60
2017-05-08T18:50:26.866Z,56
2017-05-08T18:51:26.785Z,52
2017-05-08T18:52:27.098Z,44
2017-05-08T18:53:26.892Z,40
2017-05-08T18:54:26.885Z,36
2017-05-08T18:55:26.912Z,32
2017-05-08T18:56:27.010Z,28
2017-05-08T18:57:27.011Z,24
2017-05-08T18:58:27.016Z,24
2017-05-08T18:59:27.031Z,20
2017-05-08T19:00:27.066Z,16
2017-05-08T19:01:27.108Z,16
2017-05-08T19:02:27.099Z,12
2017-05-08T19:03:27.199Z,12
2017-05-08T19:04:27.200Z,8
2017-05-08T19:05:27.322Z,8
2017-05-08T19:06:27.228Z,8
2017-05-08T19:07:27.292Z,8
2017-05-08T19:08:27.502Z,8
2017-05-08T19:09:27.559Z,4
2017-05-08T19:10:27.412Z,8
2017-05-08T19:11:27.400Z,4
2017-05-08T19:12:27.413Z,4
2017-05-08T19:13:27.481Z,4
2017-05-08T19:14:27.479Z,0
2017-05-08T19:15:27.500Z,4
2017-05-08T19:16:27.550Z,4
2017-05-08T19:17:27.799Z,0
2017-05-08T19:18:27.586Z,0
2017-05-08T19:19:27.685Z,4
2017-05-08T19:20:27.703Z,4
2017-05-08T19:21:27.871Z,4
2017-05-08T19:22:27.694Z,0
2017-05-08T19:23:27.755Z,0
2017-05-08T19:24:27.797Z,0
2017-05-08T19:25:27.798Z,0
2017-05-08T19:26:27.820Z,0
2017-05-08T19:27:27.889Z,0
2017-05-08T19:28:27.904Z,0
2017-05-08T19:29:27.918Z,0
2017-05-08T19:30:27.960Z,0
2017-05-08T19:31:28.038Z,0
2017-05-08T19:32:28.040Z,0
2017-05-08T19:33:28.041Z,0
2017-05-08T19:34:28.123Z,0
2017-05-08T19:35:28.119Z,0
2017-05-08T19:36:28.113Z,0
2017-05-08T19:37:28.213Z,0
2017-05-08T19:38:28.548Z,0
2017-05-08T19:39:28.230Z,0
2017-05-08T19:40:28.417Z,0
2017-05-08T19:41:28.344Z,0
2017-05-08T19:42:28.332Z,0
2017-05-08T19:43:28.415Z,0
2017-05-08T19:44:28.386Z,0
2017-05-08T19:45:28.393Z,0
2017-05-08T19:46:28.397Z,0
2017-05-08T19:47:28.444Z,0
2017-05-08T19:48:28.484Z,0
2017-05-08T19:49:28.495Z,0
2017-05-08T19:50:28.536Z,0
2017-05-08T19:51:28.558Z,0
2017-05-08T19:52:28.603Z,0
2017-05-08T19:53:28.610Z,0
2017-05-08T19:54:28.628Z,0
2017-05-08T19:55:28.659Z,0
2017-05-08T19:56:28.707Z,0
2017-05-08T19:57:28.733Z,0
2017-05-08T19:58:28.770Z,0
2017-05-08T19:59:28.796Z,0
2017-05-08T20:00:29.046Z,0
2017-05-08T20:01:28.861Z,0
2017-05-08T20:02:28.896Z,0
2017-05-08T20:03:28.916Z,0
2017-05-08T20:04:28.931Z,0
2017-05-08T20:05:28.998Z,0
2017-05-08T20:06:29.080Z,0
2017-05-08T20:07:29.051Z,0
2017-05-08T20:08:29.264Z,0
2017-05-08T20:09:29.350Z,0
2017-05-08T20:10:29.130Z,0
2017-05-08T20:11:29.400Z,0
2017-05-08T20:12:29.155Z,0
2017-05-08T20:13:29.231Z,0
2017-05-08T20:14:29.259Z,0
2017-05-08T20:15:29.266Z,0
2017-05-08T20:16:29.266Z,0
2017-05-08T20:17:29.311Z,0
2017-05-08T20:18:29.345Z,0
2017-05-08T20:19:30.078Z,0
2017-05-08T20:20:29.439Z,0
2017-05-08T20:21:29.427Z,0
2017-05-08T20:22:29.433Z,0
2017-05-08T20:23:29.500Z,0
2017-05-08T20:24:29.531Z,0
2017-05-08T20:25:29.538Z,0
2017-05-08T20:26:29.579Z,0
2017-05-08T20:27:29.630Z,0
2017-05-08T20:28:29.655Z,0
2017-05-08T20:29:29.694Z,0
2017-05-08T20:30:29.696Z,0
2017-05-08T20:31:29.737Z,0
2017-05-08T20:32:29.799Z,0
2017-05-08T20:33:29.832Z,0
2017-05-08T20:34:29.805Z,0
2017-05-08T20:35:29.822Z,0
2017-05-08T20:36:29.886Z,0
2017-05-08T20:37:29.913Z,0
2017-05-08T20:38:29.919Z,0
2017-05-08T20:39:29.944Z,0
2017-05-08T20:40:30.194Z,0
2017-05-08T20:41:30.022Z,0
2017-05-08T20:42:30.029Z,0
2017-05-08T20:43:30.063Z,0
2017-05-08T20:44:30.095Z,0
2017-05-08T20:45:30.323Z,0
2017-05-08T20:46:30.139Z,0
2017-05-08T20:47:30.177Z,0
2017-05-08T20:48:30.242Z,0
2017-05-08T20:49:30.261Z,0
2017-05-08T20:50:30.287Z,0
2017-05-08T20:51:30.303Z,0
2017-05-08T20:52:30.314Z,0
2017-05-08T20:53:30.355Z,0
2017-05-08T20:54:30.361Z,0
2017-05-08T20:55:30.397Z,0
2017-05-08T20:56:30.420Z,0
2017-05-08T20:57:30.467Z,0
2017-05-08T20:58:30.547Z,0
2017-05-08T20:59:30.515Z,0
2017-05-08T21:00:30.540Z,0
2017-05-08T21:01:30.616Z,0
2017-05-08T21:02:30.653Z,0
2017-05-08T21:03:31.059Z,0
2017-05-08T21:04:30.750Z,0
2017-05-08T21:05:30.772Z,0
2017-05-08T21:06:30.739Z,0
2017-05-08T21:07:30.737Z,0
2017-05-08T21:08:30.813Z,0
2017-05-08T21:09:30.847Z,0
2017-05-08T21:10:30.889Z,0
2017-05-08T21:11:30.856Z,0
2017-05-08T21:12:30.932Z,0
2017-05-08T21:13:30.929Z,0
2017-05-08T21:14:30.938Z,0
2017-05-08T21:15:30.971Z,0
2017-05-08T21:16:31.307Z,0
2017-05-08T21:17:31.034Z,0
2017-05-08T21:18:31.085Z,0
2017-05-08T21:19:31.109Z,0
2017-05-08T21:20:31.133Z,0
2017-05-08T21:21:31.170Z,0
2017-05-08T21:22:31.207Z,0
2017-05-08T21:23:31.425Z,0
2017-05-08T21:24:31.254Z,0
2017-05-08T21:25:31.270Z,0
2017-05-08T21:26:31.307Z,0
2017-05-08T21:27:31.345Z,0
2017-05-08T21:28:31.360Z,0
2017-05-08T21:29:31.409Z,0
2017-05-08T21:30:31.640Z,0
2017-05-08T21:31:31.451Z,0
2017-05-08T21:32:31.485Z,0
2017-05-08T21:33:31.487Z,0
2017-05-08T21:34:31.498Z,0
2017-05-08T21:35:31.523Z,0
2017-05-08T21:36:31.627Z,0
2017-05-08T21:37:31.598Z,0
2017-05-08T21:38:31.657Z,0
2017-05-08T21:39:31.886Z,0
2017-05-08T21:40:31.698Z,0
2017-05-08T21:41:31.761Z,0
2017-05-08T21:42:31.806Z,0
2017-05-08T21:43:31.762Z,0
2017-05-08T21:44:31.782Z,0
2017-05-08T21:45:32.409Z,0
2017-05-08T21:46:31.868Z,0
2017-05-08T21:47:31.928Z,0
2017-05-08T21:48:31.897Z,0
2017-05-08T21:49:32.069Z,0
2017-05-08T21:50:31.990Z,0
2017-05-08T21:51:32.031Z,0
2017-05-08T21:52:32.036Z,0
2017-05-08T21:53:32.031Z,0
2017-05-08T21:54:32.070Z,0
2017-05-08T21:55:32.492Z,0
2017-05-08T21:56:32.160Z,0
2017-05-08T21:57:32.160Z,0
2017-05-08T21:58:32.214Z,0
2017-05-08T21:59:32.270Z,0
2017-05-08T22:00:32.273Z,0
2017-05-08T22:01:32.524Z,0
2017-05-08T22:02:32.354Z,0
2017-05-08T22:03:32.747Z,0
2017-05-08T22:04:32.801Z,0
2017-05-08T22:05:32.391Z,0
2017-05-08T22:06:32.410Z,0
2017-05-08T22:07:32.451Z,0
2017-05-08T22:08:32.462Z,0
2017-05-08T22:09:32.964Z,0
2017-05-08T22:10:32.570Z,0
2017-05-08T22:11:32.789Z,0
2017-05-08T22:12:32.577Z,0
2017-05-08T22:13:32.592Z,0
2017-05-08T22:14:32.670Z,0
2017-05-08T22:15:32.675Z,0
2017-05-08T22:16:32.697Z,0
2017-05-08T22:17:32.929Z,0
2017-05-08T22:18:32.947Z,0
2017-05-08T22:19:32.825Z,0
2017-05-08T22:20:32.867Z,0
2017-05-08T22:21:32.927Z,0
2017-05-08T22:22:33.025Z,0
2017-05-08T22:23:32.914Z,0
2017-05-08T22:24:32.968Z,0
2017-05-08T22:25:32.972Z,0
2017-05-08T22:26:32.968Z,0
2017-05-08T22:27:32.992Z,0
2017-05-08T22:28:33.089Z,0
2017-05-08T22:29:33.063Z,0
2017-05-08T22:30:33.076Z,0
2017-05-08T22:31:33.120Z,0
2017-05-08T22:32:33.136Z,0
2017-05-08T22:33:33.165Z,0
2017-05-08T22:34:33.253Z,0
2017-05-08T22:35:33.283Z,0
2017-05-08T22:36:33.248Z,0
2017-05-08T22:37:33.271Z,0
2017-05-08T22:38:33.307Z,0
2017-05-08T22:39:33.346Z,0
2017-05-08T22:40:33.378Z,0
2017-05-08T22:41:33.454Z,0
2017-05-08T22:42:33.436Z,0
2017-05-08T22:43:33.480Z,0
2017-05-08T22:44:33.478Z,0
2017-05-08T22:45:33.549Z,0
2017-05-08T22:46:33.560Z,0
2017-05-08T22:47:33.553Z,0
2017-05-08T22:48:33.635Z,0
2017-05-08T22:49:33.842Z,0
2017-05-08T22:50:33.641Z,0
2017-05-08T22:51:33.654Z,0
2017-05-08T22:52:33.756Z,0
2017-05-08T22:53:33.710Z,0
2017-05-08T22:54:33.812Z,0
2017-05-08T22:55:33.815Z,0
2017-05-08T22:56:33.834Z,0
2017-05-08T22:57:33.863Z,0
2017-05-08T22:58:33.868Z,0
2017-05-08T22:59:33.941Z,0
2017-05-08T23:00:33.925Z,0
2017-05-08T23:01:33.938Z,0
2017-05-08T23:02:34.444Z,0
2017-05-08T23:03:34.055Z,0
2017-05-08T23:04:34.051Z,0
2017-05-08T23:05:34.053Z,0
2017-05-08T23:06:34.147Z,0
2017-05-08T23:07:34.131Z,0
2017-05-08T23:08:34.174Z,0
2017-05-08T23:09:34.461Z,0
2017-05-08T23:10:34.258Z,0
2017-05-08T23:11:34.213Z,0
2017-05-08T23:12:34.312Z,0
2017-05-08T23:13:34.363Z,0
2017-05-08T23:14:34.329Z,0
2017-05-08T23:15:34.314Z,0
2017-05-08T23:16:34.383Z,0
2017-05-08T23:17:34.386Z,0
2017-05-08T23:18:34.448Z,0
2017-05-08T23:19:34.451Z,0
2017-05-08T23:20:34.670Z,0
2017-05-08T23:21:34.521Z,0
2017-05-08T23:22:34.566Z,0
2017-05-08T23:23:34.651Z,0
2017-05-08T23:24:34.686Z,0
2017-05-08T23:25:34.760Z,0
2017-05-08T23:26:34.659Z,0
2017-05-08T23:27:34.661Z,0
2017-05-08T23:28:34.710Z,0
2017-05-08T23:29:34.726Z,0
2017-05-08T23:30:34.805Z,0
2017-05-08T23:31:34.761Z,0
2017-05-08T23:32:34.950Z,0
2017-05-08T23:33:34.869Z,0
2017-05-08T23:34:36.202Z,0
2017-05-08T23:35:34.902Z,0
2017-05-08T23:36:34.923Z,0
2017-05-08T23:37:34.956Z,0
2017-05-08T23:38:34.993Z,0
2017-05-08T23:39:35.415Z,0
2017-05-08T23:40:35.039Z,0
2017-05-08T23:41:35.059Z,0
2017-05-08T23:42:35.056Z,0
2017-05-08T23:43:35.338Z,0
2017-05-08T23:44:35.151Z,0
2017-05-08T23:45:35.773Z,0
2017-05-08T23:46:35.165Z,0
2017-05-08T23:47:35.206Z,0
2017-05-08T23:48:35.686Z,0
2017-05-08T23:49:35.268Z,0
2017-05-08T23:50:35.303Z,0
2017-05-08T23:51:35.314Z,0
2017-05-08T23:52:35.409Z,0
2017-05-08T23:53:35.343Z,0
2017-05-08T23:54:35.418Z,0
2017-05-08T23:55:35.434Z,0
2017-05-08T23:56:35.435Z,0
2017-05-08T23:57:35.488Z,0
2017-05-08T23:58:35.506Z,0
2017-05-08T23:59:35.581Z,0
